WZZ3558 LBWN-LBSF
Flight info
| Callsign | WZZ3558 |
|---|---|
| Flight time | 0h 39m |
| Altitude | 26000 |
| Route | TOTKA T343 UMPIT DCT SF604 DCT SF603 DCT RUBIV DCT BAGIP DCT TUTPO |
| Aircraft | A20N/M-SDE2E3FGHIRWXY/LB1 |
Departure
| Time | 2026-05-04 18:21 |
|---|---|
| Airport | Varna Airport (LBWN) |
Arrival
| Time | 2026-05-04 19:01 |
|---|---|
| Airport | Sofia Airport (LBSF) |
| Time | Latitude | Longitude | Altitude | Speed | Heading |
|---|---|---|---|---|---|
| 2026-05-04 18:07 | 43.23527 | 27.82390 | 232 ft | 0 kts | 40° |
| 2026-05-04 18:15 | 43.23523 | 27.82385 | 232 ft | 2 kts | 40° |
| 2026-05-04 18:15 | 43.23511 | 27.82371 | 235 ft | 2 kts | 40° |
| 2026-05-04 18:16 | 43.23497 | 27.82360 | 236 ft | 2 kts | 358° |
| 2026-05-04 18:16 | 43.23483 | 27.82367 | 234 ft | 2 kts | 303° |
| 2026-05-04 18:16 | 43.23481 | 27.82353 | 234 ft | 10 kts | 275° |
| 2026-05-04 18:17 | 43.23498 | 27.81960 | 230 ft | 19 kts | 277° |
| 2026-05-04 18:17 | 43.23510 | 27.81826 | 230 ft | 6 kts | 277° |
| 2026-05-04 18:17 | 43.23525 | 27.81649 | 229 ft | 12 kts | 277° |
| 2026-05-04 18:18 | 43.23536 | 27.81522 | 228 ft | 15 kts | 277° |
| 2026-05-04 18:18 | 43.23550 | 27.81373 | 227 ft | 17 kts | 277° |
| 2026-05-04 18:18 | 43.23564 | 27.81205 | 227 ft | 19 kts | 276° |
| 2026-05-04 18:18 | 43.23572 | 27.81100 | 226 ft | 5 kts | 276° |
| 2026-05-04 18:19 | 43.23563 | 27.80971 | 227 ft | 0 kts | 237° |
| 2026-05-04 18:19 | 43.23556 | 27.80960 | 226 ft | 6 kts | 229° |
| 2026-05-04 18:19 | 43.23515 | 27.80926 | 226 ft | 8 kts | 196° |
| 2026-05-04 18:20 | 43.23454 | 27.80935 | 226 ft | 10 kts | 160° |
| 2026-05-04 18:20 | 43.23389 | 27.80991 | 225 ft | 13 kts | 142° |
| 2026-05-04 18:20 | 43.23330 | 27.81091 | 225 ft | 14 kts | 113° |
| 2026-05-04 18:20 | 43.23306 | 27.81288 | 226 ft | 49 kts | 96° |
| 2026-05-04 18:21 | 43.23230 | 27.82187 | 235 ft | 142 kts | 96° |
| 2026-05-04 18:21 | 43.23094 | 27.83819 | 521 ft | 189 kts | 91° |
| 2026-05-04 18:21 | 43.22930 | 27.85730 | 1051 ft | 217 kts | 92° |
| 2026-05-04 18:21 | 43.22751 | 27.87900 | 1888 ft | 237 kts | 93° |
| 2026-05-04 18:22 | 43.22548 | 27.90203 | 3062 ft | 249 kts | 93° |
| 2026-05-04 18:22 | 43.22333 | 27.92600 | 4315 ft | 256 kts | 92° |
| 2026-05-04 18:22 | 43.22090 | 27.95039 | 5583 ft | 262 kts | 96° |
| 2026-05-04 18:22 | 43.21474 | 27.97414 | 6891 ft | 269 kts | 113° |
| 2026-05-04 18:23 | 43.20235 | 27.99407 | 8084 ft | 286 kts | 139° |
| 2026-05-04 18:23 | 43.18334 | 28.00419 | 9259 ft | 306 kts | 171° |
| 2026-05-04 18:23 | 43.16199 | 28.00010 | 10325 ft | 321 kts | 201° |
| 2026-05-04 18:23 | 43.14302 | 27.98235 | 10887 ft | 345 kts | 230° |
| 2026-05-04 18:24 | 43.13127 | 27.95338 | 11599 ft | 354 kts | 259° |
| 2026-05-04 18:24 | 43.12837 | 27.91992 | 12560 ft | 357 kts | 274° |
| 2026-05-04 18:24 | 43.12937 | 27.88571 | 13612 ft | 363 kts | 278° |
| 2026-05-04 18:24 | 43.13093 | 27.85093 | 14604 ft | 369 kts | 277° |
| 2026-05-04 18:25 | 43.13153 | 27.81612 | 15697 ft | 371 kts | 275° |
| 2026-05-04 18:25 | 43.13084 | 27.78068 | 16817 ft | 374 kts | 272° |
| 2026-05-04 18:25 | 43.12905 | 27.74498 | 17893 ft | 377 kts | 270° |
| 2026-05-04 18:25 | 43.12650 | 27.70904 | 18821 ft | 382 kts | 269° |
| 2026-05-04 18:26 | 43.12352 | 27.67254 | 19512 ft | 391 kts | 268° |
| 2026-05-04 18:26 | 43.12028 | 27.63517 | 20208 ft | 399 kts | 267° |
| 2026-05-04 18:26 | 43.11694 | 27.59707 | 20885 ft | 407 kts | 266° |
| 2026-05-04 18:26 | 43.11465 | 27.57090 | 21385 ft | 411 kts | 266° |
| 2026-05-04 18:27 | 43.11130 | 27.53232 | 22132 ft | 416 kts | 266° |
| 2026-05-04 18:27 | 43.10790 | 27.49268 | 22805 ft | 422 kts | 265° |
| 2026-05-04 18:27 | 43.10449 | 27.45259 | 23522 ft | 427 kts | 265° |
| 2026-05-04 18:27 | 43.10104 | 27.41194 | 24082 ft | 433 kts | 264° |
| 2026-05-04 18:28 | 43.09754 | 27.37083 | 24650 ft | 437 kts | 264° |
| 2026-05-04 18:28 | 43.09400 | 27.32932 | 25206 ft | 441 kts | 264° |
| 2026-05-04 18:28 | 43.09041 | 27.28741 | 25730 ft | 446 kts | 264° |
| 2026-05-04 18:28 | 43.08675 | 27.24483 | 26007 ft | 457 kts | 264° |
| 2026-05-04 18:29 | 43.08297 | 27.20093 | 26053 ft | 473 kts | 264° |
| 2026-05-04 18:29 | 43.07903 | 27.15548 | 26054 ft | 489 kts | 264° |
| 2026-05-04 18:29 | 43.07495 | 27.10858 | 26060 ft | 503 kts | 264° |
| 2026-05-04 18:29 | 43.07074 | 27.06040 | 26053 ft | 517 kts | 264° |
| 2026-05-04 18:30 | 43.06201 | 26.96245 | 26569 ft | 505 kts | 263° |
| 2026-05-04 18:30 | 43.05688 | 26.91612 | 26416 ft | 482 kts | 261° |
| 2026-05-04 18:30 | 43.05112 | 26.87215 | 26399 ft | 458 kts | 260° |
| 2026-05-04 18:31 | 43.04554 | 26.83039 | 26337 ft | 437 kts | 260° |
| 2026-05-04 18:31 | 43.04017 | 26.79035 | 26211 ft | 420 kts | 260° |
| 2026-05-04 18:31 | 43.03499 | 26.75181 | 26043 ft | 405 kts | 260° |
| 2026-05-04 18:31 | 43.02996 | 26.71454 | 25837 ft | 393 kts | 260° |
| 2026-05-04 18:32 | 43.02504 | 26.67829 | 25584 ft | 382 kts | 260° |
| 2026-05-04 18:32 | 43.02023 | 26.64292 | 25313 ft | 374 kts | 261° |
| 2026-05-04 18:32 | 43.01551 | 26.60833 | 25031 ft | 367 kts | 261° |
| 2026-05-04 18:32 | 43.01087 | 26.57442 | 24727 ft | 360 kts | 261° |
| 2026-05-04 18:33 | 43.00635 | 26.54150 | 24434 ft | 354 kts | 261° |
| 2026-05-04 18:33 | 43.00158 | 26.50896 | 24255 ft | 345 kts | 259° |
| 2026-05-04 18:33 | 42.99661 | 26.47745 | 24114 ft | 334 kts | 259° |
| 2026-05-04 18:33 | 42.99151 | 26.44718 | 24254 ft | 328 kts | 258° |
| 2026-05-04 18:34 | 42.98564 | 26.41615 | 24517 ft | 346 kts | 256° |
| 2026-05-04 18:34 | 42.97908 | 26.38397 | 24899 ft | 358 kts | 255° |
| 2026-05-04 18:34 | 42.97225 | 26.35074 | 25313 ft | 368 kts | 256° |
| 2026-05-04 18:34 | 42.96542 | 26.31652 | 25757 ft | 377 kts | 255° |
| 2026-05-04 18:35 | 42.95849 | 26.28164 | 26242 ft | 385 kts | 255° |
| 2026-05-04 18:35 | 42.95136 | 26.24593 | 26571 ft | 396 kts | 254° |
| 2026-05-04 18:35 | 42.94376 | 26.20902 | 26738 ft | 412 kts | 254° |
| 2026-05-04 18:35 | 42.93587 | 26.17077 | 26922 ft | 425 kts | 254° |
| 2026-05-04 18:36 | 42.92774 | 26.13137 | 27141 ft | 437 kts | 254° |
| 2026-05-04 18:36 | 42.91938 | 26.09093 | 27386 ft | 448 kts | 254° |
| 2026-05-04 18:36 | 42.91081 | 26.04952 | 27535 ft | 460 kts | 253° |
| 2026-05-04 18:36 | 42.90207 | 26.00683 | 27636 ft | 473 kts | 254° |
| 2026-05-04 18:37 | 42.89315 | 25.96294 | 27639 ft | 487 kts | 254° |
| 2026-05-04 18:37 | 42.88434 | 25.91776 | 27502 ft | 490 kts | 257° |
| 2026-05-04 18:37 | 42.88015 | 25.87255 | 27128 ft | 473 kts | 269° |
| 2026-05-04 18:37 | 42.88261 | 25.82874 | 26783 ft | 456 kts | 281° |
| 2026-05-04 18:38 | 42.88816 | 25.78664 | 26482 ft | 448 kts | 282° |
| 2026-05-04 18:38 | 42.89424 | 25.74500 | 26190 ft | 446 kts | 283° |
| 2026-05-04 18:38 | 42.90036 | 25.70357 | 25906 ft | 444 kts | 283° |
| 2026-05-04 18:38 | 42.90638 | 25.66265 | 25899 ft | 437 kts | 283° |
| 2026-05-04 18:39 | 42.91217 | 25.62242 | 26073 ft | 437 kts | 282° |
| 2026-05-04 18:39 | 42.91804 | 25.58173 | 26095 ft | 437 kts | 282° |
| 2026-05-04 18:39 | 42.92319 | 25.54094 | 26061 ft | 437 kts | 277° |
| 2026-05-04 18:39 | 42.92356 | 25.49942 | 25791 ft | 438 kts | 266° |
| 2026-05-04 18:40 | 42.91915 | 25.45839 | 25231 ft | 436 kts | 260° |
| 2026-05-04 18:40 | 42.91342 | 25.41779 | 24734 ft | 436 kts | 261° |
| 2026-05-04 18:40 | 42.90800 | 25.37719 | 24265 ft | 433 kts | 261° |
| 2026-05-04 18:40 | 42.90265 | 25.33719 | 23788 ft | 424 kts | 261° |
| 2026-05-04 18:41 | 42.89737 | 25.29803 | 23239 ft | 416 kts | 261° |
| 2026-05-04 18:41 | 42.89216 | 25.25955 | 22671 ft | 408 kts | 261° |
| 2026-05-04 18:41 | 42.88705 | 25.22179 | 22115 ft | 401 kts | 262° |
| 2026-05-04 18:41 | 42.88201 | 25.18468 | 21580 ft | 395 kts | 262° |
| 2026-05-04 18:42 | 42.87700 | 25.14816 | 21035 ft | 389 kts | 264° |
| 2026-05-04 18:42 | 42.87203 | 25.11219 | 20525 ft | 383 kts | 262° |
| 2026-05-04 18:42 | 42.86710 | 25.07689 | 19989 ft | 376 kts | 262° |
| 2026-05-04 18:42 | 42.86221 | 25.04215 | 19471 ft | 370 kts | 264° |
| 2026-05-04 18:43 | 42.85742 | 25.00799 | 18948 ft | 363 kts | 264° |
| 2026-05-04 18:43 | 42.85268 | 24.97442 | 18468 ft | 358 kts | 263° |
| 2026-05-04 18:43 | 42.84795 | 24.94134 | 17909 ft | 352 kts | 263° |
| 2026-05-04 18:43 | 42.84333 | 24.90924 | 17356 ft | 348 kts | 264° |
| 2026-05-04 18:44 | 42.83868 | 24.87711 | 16807 ft | 344 kts | 263° |
| 2026-05-04 18:44 | 42.83556 | 24.85559 | 16441 ft | 342 kts | 262° |
| 2026-05-04 18:44 | 42.82948 | 24.81377 | 15726 ft | 338 kts | 262° |
| 2026-05-04 18:44 | 42.82490 | 24.78243 | 15213 ft | 336 kts | 262° |
| 2026-05-04 18:45 | 42.82035 | 24.75130 | 14695 ft | 334 kts | 262° |
| 2026-05-04 18:45 | 42.81583 | 24.72040 | 14258 ft | 330 kts | 263° |
| 2026-05-04 18:45 | 42.81534 | 24.69019 | 14053 ft | 311 kts | 281° |
| 2026-05-04 18:45 | 42.81708 | 24.66129 | 13888 ft | 301 kts | 276° |
| 2026-05-04 18:46 | 42.81708 | 24.63320 | 13725 ft | 292 kts | 272° |
| 2026-05-04 18:46 | 42.81608 | 24.60605 | 13563 ft | 283 kts | 270° |
| 2026-05-04 18:46 | 42.81445 | 24.57983 | 13413 ft | 273 kts | 269° |
| 2026-05-04 18:46 | 42.81249 | 24.55454 | 13285 ft | 264 kts | 268° |
| 2026-05-04 18:47 | 42.81039 | 24.52999 | 13060 ft | 259 kts | 268° |
| 2026-05-04 18:47 | 42.80819 | 24.50575 | 12795 ft | 257 kts | 267° |
| 2026-05-04 18:47 | 42.80593 | 24.48165 | 12516 ft | 256 kts | 267° |
| 2026-05-04 18:47 | 42.80362 | 24.45750 | 12126 ft | 258 kts | 267° |
| 2026-05-04 18:48 | 42.80130 | 24.43367 | 11871 ft | 256 kts | 267° |
| 2026-05-04 18:48 | 42.79892 | 24.40963 | 11515 ft | 258 kts | 268° |
| 2026-05-04 18:48 | 42.79651 | 24.38546 | 11189 ft | 257 kts | 267° |
| 2026-05-04 18:48 | 42.79411 | 24.36137 | 10946 ft | 256 kts | 267° |
| 2026-05-04 18:49 | 42.79172 | 24.33738 | 10675 ft | 255 kts | 267° |
| 2026-05-04 18:49 | 42.78936 | 24.31350 | 10411 ft | 255 kts | 267° |
| 2026-05-04 18:49 | 42.78695 | 24.28961 | 10137 ft | 254 kts | 267° |
| 2026-05-04 18:49 | 42.78458 | 24.26580 | 10037 ft | 253 kts | 268° |
| 2026-05-04 18:50 | 42.78220 | 24.24207 | 10029 ft | 253 kts | 267° |
| 2026-05-04 18:50 | 42.77980 | 24.21842 | 10021 ft | 253 kts | 267° |
| 2026-05-04 18:50 | 42.77740 | 24.19469 | 10031 ft | 253 kts | 267° |
| 2026-05-04 18:50 | 42.77498 | 24.17096 | 10033 ft | 253 kts | 267° |
| 2026-05-04 18:51 | 42.77269 | 24.14724 | 10019 ft | 250 kts | 278° |
| 2026-05-04 18:51 | 42.77166 | 24.12389 | 9469 ft | 248 kts | 281° |
| 2026-05-04 18:51 | 42.77056 | 24.10026 | 8962 ft | 251 kts | 279° |
| 2026-05-04 18:51 | 42.76891 | 24.07680 | 8652 ft | 246 kts | 276° |
| 2026-05-04 18:52 | 42.76664 | 24.05397 | 8301 ft | 240 kts | 274° |
| 2026-05-04 18:52 | 42.76237 | 24.03176 | 8063 ft | 246 kts | 262° |
| 2026-05-04 18:52 | 42.75577 | 24.01015 | 8024 ft | 247 kts | 257° |
| 2026-05-04 18:52 | 42.74859 | 23.98887 | 8029 ft | 246 kts | 256° |
| 2026-05-04 18:53 | 42.74125 | 23.96792 | 8008 ft | 245 kts | 256° |
| 2026-05-04 18:53 | 42.73374 | 23.94708 | 8053 ft | 244 kts | 244° |
| 2026-05-04 18:53 | 42.72605 | 23.92652 | 8029 ft | 243 kts | 246° |
| 2026-05-04 18:53 | 42.71852 | 23.90601 | 8021 ft | 242 kts | 246° |
| 2026-05-04 18:54 | 42.71095 | 23.88563 | 7756 ft | 241 kts | 245° |
| 2026-05-04 18:54 | 42.70341 | 23.86533 | 7475 ft | 239 kts | 245° |
| 2026-05-04 18:54 | 42.69600 | 23.84526 | 7210 ft | 236 kts | 246° |
| 2026-05-04 18:54 | 42.68881 | 23.82594 | 7073 ft | 223 kts | 245° |
| 2026-05-04 18:55 | 42.68184 | 23.80740 | 6814 ft | 218 kts | 246° |
| 2026-05-04 18:55 | 42.66830 | 23.77168 | 6287 ft | 206 kts | 246° |
| 2026-05-04 18:55 | 42.66176 | 23.75461 | 6058 ft | 200 kts | 247° |
| 2026-05-04 18:56 | 42.65935 | 23.73695 | 6028 ft | 190 kts | 283° |
| 2026-05-04 18:56 | 42.66281 | 23.71985 | 6022 ft | 189 kts | 286° |
| 2026-05-04 18:56 | 42.66408 | 23.70169 | 6030 ft | 191 kts | 276° |
| 2026-05-04 18:56 | 42.66435 | 23.68390 | 6035 ft | 191 kts | 274° |
| 2026-05-04 18:57 | 42.66460 | 23.66585 | 6032 ft | 192 kts | 275° |
| 2026-05-04 18:57 | 42.66500 | 23.64774 | 5987 ft | 192 kts | 278° |
| 2026-05-04 18:57 | 42.66623 | 23.62993 | 5732 ft | 185 kts | 280° |
| 2026-05-04 18:57 | 42.66764 | 23.61283 | 5433 ft | 182 kts | 283° |
| 2026-05-04 18:58 | 42.67129 | 23.59628 | 4981 ft | 185 kts | 296° |
| 2026-05-04 18:58 | 42.67603 | 23.57988 | 4590 ft | 184 kts | 296° |
| 2026-05-04 18:58 | 42.67989 | 23.56381 | 4454 ft | 174 kts | 285° |
| 2026-05-04 18:58 | 42.68181 | 23.54812 | 4308 ft | 164 kts | 281° |
| 2026-05-04 18:59 | 42.68344 | 23.53280 | 3945 ft | 169 kts | 281° |
| 2026-05-04 18:59 | 42.68555 | 23.51669 | 3514 ft | 173 kts | 287° |
| 2026-05-04 18:59 | 42.68836 | 23.50132 | 3212 ft | 175 kts | 288° |
| 2026-05-04 18:59 | 42.69191 | 23.48310 | 2918 ft | 221 kts | 285° |
| 2026-05-04 19:00 | 42.69367 | 23.46337 | 2423 ft | 200 kts | 274° |
| 2026-05-04 19:00 | 42.69454 | 23.44540 | 2066 ft | 183 kts | 278° |
| 2026-05-04 19:00 | 42.69574 | 23.42887 | 1777 ft | 166 kts | 279° |
| 2026-05-04 19:00 | 42.69665 | 23.41472 | 1751 ft | 128 kts | 274° |
| 2026-05-04 19:01 | 42.69701 | 23.40782 | 1745 ft | 38 kts | 275° |
| 2026-05-04 19:01 | 42.69715 | 23.40574 | 1748 ft | 17 kts | 275° |
| 2026-05-04 19:01 | 42.69727 | 23.40400 | 1745 ft | 20 kts | 275° |
| 2026-05-04 19:01 | 42.69736 | 23.40196 | 1742 ft | 23 kts | 275° |
| 2026-05-04 19:02 | 42.69751 | 23.39948 | 1751 ft | 31 kts | 275° |
| 2026-05-04 19:02 | 42.69766 | 23.39649 | 1743 ft | 28 kts | 264° |
| 2026-05-04 19:02 | 42.69746 | 23.39596 | 1742 ft | 4 kts | 194° |
| 2026-05-04 19:02 | 42.69669 | 23.39588 | 1742 ft | 15 kts | 185° |
| 2026-05-04 19:03 | 42.69513 | 23.39572 | 1746 ft | 22 kts | 185° |
| 2026-05-04 19:03 | 42.69373 | 23.39562 | 1746 ft | 20 kts | 173° |
| 2026-05-04 19:03 | 42.69302 | 23.39707 | 1744 ft | 20 kts | 105° |
| 2026-05-04 19:03 | 42.69269 | 23.39859 | 1747 ft | 4 kts | 115° |
| 2026-05-04 19:04 | 42.69236 | 23.39887 | 1742 ft | 7 kts | 187° |
| 2026-05-04 19:04 | 42.69181 | 23.39867 | 1740 ft | 0 kts | 194° |